PWSweather.com
Personal Weather Stations
Station Observations
RTINEZ
TerrassaES 08226

TerrassaES 08226

Lat: 41.5762194, Lon: 2.028993700000001

Elevation: 367

Station Type: Watson W8681

www.rtinez.cat

High Low Average
Temperature 85.6°F29.8°C 65.5°F18.6°C 73.4°F23.0°C
Dew Point 68.5°F20.3°C 55.7°F13.2°C 63.1°F17.3°C
Winds 18.3 mph 29.5 kmh Calm Calm 8.0 mph W12.9 kmh W
Wind Gusts 129.0 mph207.6 kmh 2.2 mph3.5 kmh 17.0 mph27.4 kmh
Humidity 92% 42% 72%
Pressure 30.07 in1018.3 mb 28.71 in972.2 mb -
Precipitation 0.00 in0.0 mm - -
Hour Temp Dew Point Humidity Winds Wind Gusts Pressure Precip Precip Rate Daily Precip Total
12:00 AM 67.3°F19.6°C 63.0°F17.2°C 86% 1.6 mph NW2.6 kmh NW 4.5 mph7.2 kmh 30.07 in1018.3 mb 0.00 in0.0 mm 0.00 in0.0 mm 0.00 in0.0 mm
12:15 AM 67.3°F19.6°C 63.0°F17.2°C 86% 2.2 mph W3.5 kmh W 3.8 mph6.1 kmh 30.06 in1017.9 mb 0.00 in0.0 mm 0.00 in0.0 mm 0.00 in0.0 mm
12:30 AM 67.3°F19.6°C 63.0°F17.2°C 86% 1.6 mph WNW2.6 kmh WNW 3.8 mph6.1 kmh 28.83 in976.3 mb 0.00 in0.0 mm 0.00 in0.0 mm 0.00 in0.0 mm
12:45 AM 67.3°F19.6°C 62.6°F17.0°C 85% 2.2 mph WNW3.5 kmh WNW 122.0 mph196.3 kmh 30.05 in1017.6 mb 0.00 in0.0 mm 0.00 in0.0 mm 0.00 in0.0 mm
01:00 AM 67.3°F19.6°C 62.6°F17.0°C 85% 2.2 mph W3.5 kmh W 5.4 mph8.7 kmh 28.83 in976.3 mb 0.00 in0.0 mm 0.00 in0.0 mm 0.00 in0.0 mm
01:15 AM 66.9°F19.4°C 62.0°F16.7°C 84% 2.2 mph W3.5 kmh W 6.0 mph9.7 kmh 30.05 in1017.6 mb 0.00 in0.0 mm 0.00 in0.0 mm 0.00 in0.0 mm
01:30 AM 66.7°F19.3°C 61.8°F16.6°C 84% 3.1 mph WNW5.0 kmh WNW 6.9 mph11.1 kmh 28.83 in976.3 mb 0.00 in0.0 mm 0.00 in0.0 mm 0.00 in0.0 mm
01:45 AM 66.9°F19.4°C 62.0°F16.7°C 84% 3.1 mph WNW5.0 kmh WNW 6.0 mph9.7 kmh 28.82 in976.0 mb 0.00 in0.0 mm 0.00 in0.0 mm 0.00 in0.0 mm
02:00 AM 66.9°F19.4°C 61.6°F16.4°C 83% 4.5 mph NW7.2 kmh NW 129.0 mph207.6 kmh 30.05 in1017.6 mb 0.00 in0.0 mm 0.00 in0.0 mm 0.00 in0.0 mm
02:15 AM 66.7°F19.3°C 61.4°F16.3°C 83% 2.2 mph WNW3.5 kmh WNW 6.9 mph11.1 kmh 28.82 in976.0 mb 0.00 in0.0 mm 0.00 in0.0 mm 0.00 in0.0 mm
02:30 AM 66.7°F19.3°C 61.4°F16.3°C 83% 3.1 mph W5.0 kmh W 5.4 mph8.7 kmh 28.82 in976.0 mb 0.00 in0.0 mm 0.00 in0.0 mm 0.00 in0.0 mm
02:45 AM 66.9°F19.4°C 62.0°F16.7°C 84% 2.2 mph WNW3.5 kmh WNW 6.9 mph11.1 kmh 28.81 in975.6 mb 0.00 in0.0 mm 0.00 in0.0 mm 0.00 in0.0 mm
03:00 AM 66.7°F19.3°C 61.8°F16.6°C 84% 3.1 mph WNW5.0 kmh WNW 6.0 mph9.7 kmh 28.81 in975.6 mb 0.00 in0.0 mm 0.00 in0.0 mm 0.00 in0.0 mm
03:15 AM 66.7°F19.3°C 61.8°F16.6°C 84% 3.8 mph WNW6.1 kmh WNW 6.9 mph11.1 kmh 30.03 in1016.9 mb 0.00 in0.0 mm 0.00 in0.0 mm 0.00 in0.0 mm
03:30 AM 66.6°F19.2°C 61.6°F16.4°C 84% 2.2 mph W3.5 kmh W 6.9 mph11.1 kmh 28.81 in975.6 mb 0.00 in0.0 mm 0.00 in0.0 mm 0.00 in0.0 mm
03:45 AM 65.8°F18.8°C 61.2°F16.2°C 85% 3.8 mph W6.1 kmh W 6.0 mph9.7 kmh 28.80 in975.3 mb 0.00 in0.0 mm 0.00 in0.0 mm 0.00 in0.0 mm
04:00 AM 66.0°F18.9°C 61.7°F16.5°C 86% 2.2 mph W3.5 kmh W 5.4 mph8.7 kmh 28.81 in975.6 mb 0.00 in0.0 mm 0.00 in0.0 mm 0.00 in0.0 mm
04:15 AM 65.8°F18.8°C 61.6°F16.4°C 86% 2.2 mph W3.5 kmh W 6.0 mph9.7 kmh 28.80 in975.3 mb 0.00 in0.0 mm 0.00 in0.0 mm 0.00 in0.0 mm
04:30 AM 66.2°F19.0°C 61.9°F16.6°C 86% 4.5 mph WNW7.2 kmh WNW 8.3 mph13.4 kmh 28.79 in974.9 mb 0.00 in0.0 mm 0.00 in0.0 mm 0.00 in0.0 mm
04:45 AM 66.6°F19.2°C 62.9°F17.2°C 88% 6.0 mph WNW9.7 kmh WNW 8.3 mph13.4 kmh 28.79 in974.9 mb 0.00 in0.0 mm 0.00 in0.0 mm 0.00 in0.0 mm
05:00 AM 66.7°F19.3°C 62.8°F17.1°C 87% 3.8 mph W6.1 kmh W 8.3 mph13.4 kmh 28.78 in974.6 mb 0.00 in0.0 mm 0.00 in0.0 mm 0.00 in0.0 mm
05:15 AM 66.7°F19.3°C 62.4°F16.9°C 86% 2.2 mph WNW3.5 kmh WNW 7.6 mph12.2 kmh 30.01 in1016.3 mb 0.00 in0.0 mm 0.00 in0.0 mm 0.00 in0.0 mm
05:30 AM 66.4°F19.1°C 62.1°F16.7°C 86% 3.8 mph WNW6.1 kmh WNW 6.0 mph9.7 kmh 28.78 in974.6 mb 0.00 in0.0 mm 0.00 in0.0 mm 0.00 in0.0 mm
05:45 AM 65.7°F18.7°C 61.4°F16.3°C 86% 2.2 mph WNW3.5 kmh WNW 5.4 mph8.7 kmh 30.01 in1016.3 mb 0.00 in0.0 mm 0.00 in0.0 mm 0.00 in0.0 mm
06:00 AM 65.5°F18.6°C 61.5°F16.4°C 87% 3.1 mph WNW5.0 kmh WNW 5.4 mph8.7 kmh 28.78 in974.6 mb 0.00 in0.0 mm 0.00 in0.0 mm 0.00 in0.0 mm
06:15 AM 66.0°F18.9°C 62.1°F16.7°C 87% 5.4 mph WNW8.7 kmh WNW 8.3 mph13.4 kmh 28.78 in974.6 mb 0.00 in0.0 mm 0.00 in0.0 mm 0.00 in0.0 mm
06:30 AM 66.2°F19.0°C 61.9°F16.6°C 86% 5.4 mph W8.7 kmh W 7.6 mph12.2 kmh 30.01 in1016.3 mb 0.00 in0.0 mm 0.00 in0.0 mm 0.00 in0.0 mm
06:45 AM 65.7°F18.7°C 61.4°F16.3°C 86% 3.8 mph WNW6.1 kmh WNW 7.6 mph12.2 kmh 30.01 in1016.3 mb 0.00 in0.0 mm 0.00 in0.0 mm 0.00 in0.0 mm
07:00 AM 65.7°F18.7°C 61.4°F16.3°C 86% 5.4 mph W8.7 kmh W 8.3 mph13.4 kmh 30.00 in1015.9 mb 0.00 in0.0 mm 0.00 in0.0 mm 0.00 in0.0 mm
07:15 AM 66.0°F18.9°C 61.4°F16.3°C 85% 6.0 mph W9.7 kmh W 8.3 mph13.4 kmh 30.00 in1015.9 mb 0.00 in0.0 mm 0.00 in0.0 mm 0.00 in0.0 mm
07:30 AM 67.5°F19.7°C 61.8°F16.6°C 82% 6.9 mph WNW11.1 kmh WNW 9.8 mph15.8 kmh 30.01 in1016.3 mb 0.00 in0.0 mm 0.00 in0.0 mm 0.00 in0.0 mm
07:45 AM 68.7°F20.4°C 61.6°F16.4°C 78% 5.4 mph NW8.7 kmh NW 9.8 mph15.8 kmh 30.00 in1015.9 mb 0.00 in0.0 mm 0.00 in0.0 mm 0.00 in0.0 mm
08:00 AM 69.8°F21.0°C 61.2°F16.2°C 74% 6.0 mph W9.7 kmh W 11.4 mph18.3 kmh 28.79 in974.9 mb 0.00 in0.0 mm 0.00 in0.0 mm 0.00 in0.0 mm
08:15 AM 71.2°F21.8°C 61.4°F16.3°C 71% 4.5 mph W7.2 kmh W 11.4 mph18.3 kmh 28.79 in974.9 mb 0.00 in0.0 mm 0.00 in0.0 mm 0.00 in0.0 mm
08:30 AM 71.4°F21.9°C 60.7°F15.9°C 69% 8.3 mph W13.4 kmh W 12.1 mph19.5 kmh 28.79 in974.9 mb 0.00 in0.0 mm 0.00 in0.0 mm 0.00 in0.0 mm
08:45 AM 71.1°F21.7°C 60.4°F15.8°C 69% 11.4 mph WNW18.3 kmh WNW 16.8 mph27.0 kmh 30.01 in1016.3 mb 0.00 in0.0 mm 0.00 in0.0 mm 0.00 in0.0 mm
09:00 AM 71.8°F22.1°C 59.0°F15.0°C 64% 8.3 mph NW13.4 kmh NW 16.8 mph27.0 kmh 28.80 in975.3 mb 0.00 in0.0 mm 0.00 in0.0 mm 0.00 in0.0 mm
09:15 AM 72.0°F22.2°C 59.1°F15.1°C 64% 10.7 mph W17.2 kmh W 18.3 mph29.5 kmh 30.02 in1016.6 mb 0.00 in0.0 mm 0.00 in0.0 mm 0.00 in0.0 mm
09:30 AM 73.0°F22.8°C 59.3°F15.2°C 62% 7.6 mph W12.2 kmh W 14.5 mph23.3 kmh 28.80 in975.3 mb 0.00 in0.0 mm 0.00 in0.0 mm 0.00 in0.0 mm
09:45 AM 74.1°F23.4°C 60.3°F15.7°C 62% 11.4 mph W18.3 kmh W 15.9 mph25.6 kmh 30.02 in1016.6 mb 0.00 in0.0 mm 0.00 in0.0 mm 0.00 in0.0 mm
10:00 AM 74.8°F23.8°C 60.5°F15.8°C 61% 9.8 mph WNW15.8 kmh WNW 16.8 mph27.0 kmh 30.02 in1016.6 mb 0.00 in0.0 mm 0.00 in0.0 mm 0.00 in0.0 mm
10:15 AM 75.2°F24.0°C 60.4°F15.8°C 60% 13.6 mph W21.9 kmh W 17.4 mph28.0 kmh 28.80 in975.3 mb 0.00 in0.0 mm 0.00 in0.0 mm 0.00 in0.0 mm
10:30 AM 75.7°F24.3°C 59.9°F15.5°C 58% 9.2 mph W14.8 kmh W 17.4 mph28.0 kmh 28.80 in975.3 mb 0.00 in0.0 mm 0.00 in0.0 mm 0.00 in0.0 mm
10:45 AM 75.7°F24.3°C 59.9°F15.5°C 58% 13.0 mph W20.9 kmh W 17.4 mph28.0 kmh 30.02 in1016.6 mb 0.00 in0.0 mm 0.00 in0.0 mm 0.00 in0.0 mm
11:00 AM 77.2°F25.1°C 59.8°F15.4°C 55% 13.6 mph W21.9 kmh W 19.0 mph30.6 kmh 30.02 in1016.6 mb 0.00 in0.0 mm 0.00 in0.0 mm 0.00 in0.0 mm
11:15 AM 77.5°F25.3°C 60.1°F15.6°C 55% 13.0 mph W20.9 kmh W 17.4 mph28.0 kmh 28.79 in974.9 mb 0.00 in0.0 mm 0.00 in0.0 mm 0.00 in0.0 mm
11:30 AM 79.3°F26.3°C 60.8°F16.0°C 53% 11.4 mph W18.3 kmh W 17.4 mph28.0 kmh 28.78 in974.6 mb 0.00 in0.0 mm 0.00 in0.0 mm 0.00 in0.0 mm
11:45 AM 79.5°F26.4°C 61.5°F16.4°C 54% 11.4 mph W18.3 kmh W 18.3 mph29.5 kmh 30.01 in1016.3 mb 0.00 in0.0 mm 0.00 in0.0 mm 0.00 in0.0 mm
12:00 PM 80.6°F27.0°C 61.4°F16.3°C 52% 9.8 mph W15.8 kmh W 19.0 mph30.6 kmh 30.00 in1015.9 mb 0.00 in0.0 mm 0.00 in0.0 mm 0.00 in0.0 mm
12:15 PM 81.3°F27.4°C 61.5°F16.4°C 51% 9.8 mph WSW15.8 kmh WSW 17.4 mph28.0 kmh 29.99 in1015.6 mb 0.00 in0.0 mm 0.00 in0.0 mm 0.00 in0.0 mm
12:30 PM 82.2°F27.9°C 61.8°F16.6°C 50% 13.0 mph W20.9 kmh W 17.4 mph28.0 kmh 28.77 in974.3 mb 0.00 in0.0 mm 0.00 in0.0 mm 0.00 in0.0 mm
12:45 PM 83.1°F28.4°C 62.6°F17.0°C 50% 9.8 mph W15.8 kmh W 17.4 mph28.0 kmh 28.76 in973.9 mb 0.00 in0.0 mm 0.00 in0.0 mm 0.00 in0.0 mm
01:00 PM 83.5°F28.6°C 64.1°F17.8°C 52% 9.8 mph WSW15.8 kmh WSW 22.8 mph36.7 kmh 28.77 in974.3 mb 0.00 in0.0 mm 0.00 in0.0 mm 0.00 in0.0 mm
01:15 PM 83.8°F28.8°C 62.7°F17.1°C 49% 9.2 mph WNW14.8 kmh WNW 20.6 mph33.2 kmh 29.98 in1015.2 mb 0.00 in0.0 mm 0.00 in0.0 mm 0.00 in0.0 mm
01:30 PM 84.2°F29.0°C 63.6°F17.6°C 50% 13.6 mph WSW21.9 kmh WSW 18.3 mph29.5 kmh 29.98 in1015.2 mb 0.00 in0.0 mm 0.00 in0.0 mm 0.00 in0.0 mm
01:45 PM 84.7°F29.3°C 62.9°F17.2°C 48% 10.7 mph W17.2 kmh W 19.0 mph30.6 kmh 29.97 in1014.9 mb 0.00 in0.0 mm 0.00 in0.0 mm 0.00 in0.0 mm
02:00 PM 85.1°F29.5°C 61.4°F16.3°C 45% 15.2 mph W24.5 kmh W 21.3 mph34.3 kmh 28.75 in973.6 mb 0.00 in0.0 mm 0.00 in0.0 mm 0.00 in0.0 mm
02:15 PM 85.5°F29.7°C 60.5°F15.8°C 43% 12.1 mph W19.5 kmh W 20.6 mph33.2 kmh 29.96 in1014.6 mb 0.00 in0.0 mm 0.00 in0.0 mm 0.00 in0.0 mm
02:30 PM 85.6°F29.8°C 60.0°F15.6°C 42% 11.4 mph WSW18.3 kmh WSW 17.4 mph28.0 kmh 28.73 in972.9 mb 0.00 in0.0 mm 0.00 in0.0 mm 0.00 in0.0 mm
02:45 PM 85.6°F29.8°C 60.0°F15.6°C 42% 11.4 mph WSW18.3 kmh WSW 18.3 mph29.5 kmh 29.95 in1014.2 mb 0.00 in0.0 mm 0.00 in0.0 mm 0.00 in0.0 mm
03:00 PM 85.3°F29.6°C 61.0°F16.1°C 44% 14.5 mph WNW23.3 kmh WNW 22.1 mph35.6 kmh 29.95 in1014.2 mb 0.00 in0.0 mm 0.00 in0.0 mm 0.00 in0.0 mm
03:15 PM 85.1°F29.5°C 62.0°F16.7°C 46% 17.4 mph W28.0 kmh W 23.5 mph37.8 kmh 29.94 in1013.9 mb 0.00 in0.0 mm 0.00 in0.0 mm 0.00 in0.0 mm
03:30 PM 85.5°F29.7°C 63.0°F17.2°C 47% 14.5 mph W23.3 kmh W 20.6 mph33.2 kmh 29.95 in1014.2 mb 0.00 in0.0 mm 0.00 in0.0 mm 0.00 in0.0 mm
03:45 PM 85.1°F29.5°C 64.4°F18.0°C 50% 13.6 mph W21.9 kmh W 21.3 mph34.3 kmh 29.94 in1013.9 mb 0.00 in0.0 mm 0.00 in0.0 mm 0.00 in0.0 mm
04:00 PM 84.0°F28.9°C 65.1°F18.4°C 53% 15.2 mph NW24.5 kmh NW 115.0 mph185.1 kmh 29.94 in1013.9 mb 0.00 in0.0 mm 0.00 in0.0 mm 0.00 in0.0 mm
04:15 PM 84.2°F29.0°C 65.3°F18.5°C 53% 9.2 mph WNW14.8 kmh WNW 22.8 mph36.7 kmh 29.94 in1013.9 mb 0.00 in0.0 mm 0.00 in0.0 mm 0.00 in0.0 mm
04:30 PM 84.0°F28.9°C 66.2°F19.0°C 55% 9.8 mph WNW15.8 kmh WNW 20.6 mph33.2 kmh 29.94 in1013.9 mb 0.00 in0.0 mm 0.00 in0.0 mm 0.00 in0.0 mm
04:45 PM 83.3°F28.5°C 66.0°F18.9°C 56% 18.3 mph W29.5 kmh W 22.1 mph35.6 kmh 28.72 in972.6 mb 0.00 in0.0 mm 0.00 in0.0 mm 0.00 in0.0 mm
05:00 PM 82.6°F28.1°C 66.4°F19.1°C 58% 15.2 mph WNW24.5 kmh WNW 20.6 mph33.2 kmh 28.71 in972.2 mb 0.00 in0.0 mm 0.00 in0.0 mm 0.00 in0.0 mm
05:15 PM 82.4°F28.0°C 66.2°F19.0°C 58% 13.0 mph NW20.9 kmh NW 22.1 mph35.6 kmh 29.93 in1013.5 mb 0.00 in0.0 mm 0.00 in0.0 mm 0.00 in0.0 mm
05:30 PM 82.2°F27.9°C 67.5°F19.7°C 61% 10.7 mph W17.2 kmh W 21.3 mph34.3 kmh 29.94 in1013.9 mb 0.00 in0.0 mm 0.00 in0.0 mm 0.00 in0.0 mm
05:45 PM 79.7°F26.5°C 67.8°F19.9°C 67% 14.5 mph W23.3 kmh W 22.8 mph36.7 kmh 29.94 in1013.9 mb 0.00 in0.0 mm 0.00 in0.0 mm 0.00 in0.0 mm
06:00 PM 79.2°F26.2°C 67.7°F19.8°C 68% 11.4 mph W18.3 kmh W 17.4 mph28.0 kmh 28.72 in972.6 mb 0.00 in0.0 mm 0.00 in0.0 mm 0.00 in0.0 mm
06:15 PM 78.6°F25.9°C 68.5°F20.3°C 71% 11.4 mph WNW18.3 kmh WNW 19.7 mph31.7 kmh 28.72 in972.6 mb 0.00 in0.0 mm 0.00 in0.0 mm 0.00 in0.0 mm
06:30 PM 77.2°F25.1°C 67.5°F19.7°C 72% 15.2 mph WNW24.5 kmh WNW 19.0 mph30.6 kmh 28.72 in972.6 mb 0.00 in0.0 mm 0.00 in0.0 mm 0.00 in0.0 mm
06:45 PM 75.4°F24.1°C 66.9°F19.4°C 75% 14.5 mph WNW23.3 kmh WNW 22.1 mph35.6 kmh 28.71 in972.2 mb 0.00 in0.0 mm 0.00 in0.0 mm 0.00 in0.0 mm
07:00 PM 74.7°F23.7°C 67.4°F19.7°C 78% 13.0 mph W20.9 kmh W 20.6 mph33.2 kmh 28.72 in972.6 mb 0.00 in0.0 mm 0.00 in0.0 mm 0.00 in0.0 mm
07:15 PM 73.9°F23.3°C 67.4°F19.7°C 80% 16.8 mph WNW27.0 kmh WNW 22.8 mph36.7 kmh 29.94 in1013.9 mb 0.00 in0.0 mm 0.00 in0.0 mm 0.00 in0.0 mm
07:30 PM 73.2°F22.9°C 67.4°F19.7°C 82% 11.4 mph W18.3 kmh W 26.6 mph42.8 kmh 29.95 in1014.2 mb 0.00 in0.0 mm 0.00 in0.0 mm 0.00 in0.0 mm
07:45 PM 72.9°F22.7°C 67.8°F19.9°C 84% 13.0 mph WNW20.9 kmh WNW 16.8 mph27.0 kmh 28.73 in972.9 mb 0.00 in0.0 mm 0.00 in0.0 mm 0.00 in0.0 mm
08:00 PM 72.1°F22.3°C 67.8°F19.9°C 86% 5.4 mph W8.7 kmh W 15.2 mph24.5 kmh 28.73 in972.9 mb 0.00 in0.0 mm 0.00 in0.0 mm 0.00 in0.0 mm
08:15 PM 71.6°F22.0°C 67.6°F19.8°C 87% 5.4 mph WNW8.7 kmh WNW 17.4 mph28.0 kmh 29.96 in1014.6 mb 0.00 in0.0 mm 0.00 in0.0 mm 0.00 in0.0 mm
08:30 PM 71.2°F21.8°C 67.9°F19.9°C 89% 6.9 mph W11.1 kmh W 13.6 mph21.9 kmh 29.96 in1014.6 mb 0.00 in0.0 mm 0.00 in0.0 mm 0.00 in0.0 mm
08:45 PM 70.7°F21.5°C 67.7°F19.8°C 90% 8.3 mph WNW13.4 kmh WNW 11.4 mph18.3 kmh 28.75 in973.6 mb 0.00 in0.0 mm 0.00 in0.0 mm 0.00 in0.0 mm
09:00 PM 70.5°F21.4°C 67.8°F19.9°C 91% 5.4 mph NW8.7 kmh NW 13.6 mph21.9 kmh 28.75 in973.6 mb 0.00 in0.0 mm 0.00 in0.0 mm 0.00 in0.0 mm
09:15 PM 70.3°F21.3°C 67.6°F19.8°C 91% 5.4 mph W8.7 kmh W 11.4 mph18.3 kmh 28.75 in973.6 mb 0.00 in0.0 mm 0.00 in0.0 mm 0.00 in0.0 mm
09:30 PM 69.8°F21.0°C 67.1°F19.5°C 91% 0.7 mph NW1.1 kmh NW 6.9 mph11.1 kmh 28.76 in973.9 mb 0.00 in0.0 mm 0.00 in0.0 mm 0.00 in0.0 mm
09:45 PM 69.4°F20.8°C 67.0°F19.4°C 92% Calm Calm 2.2 mph3.5 kmh 29.98 in1015.2 mb 0.00 in0.0 mm 0.00 in0.0 mm 0.00 in0.0 mm
10:00 PM 68.9°F20.5°C 66.5°F19.2°C 92% 2.2 mph NW3.5 kmh NW 3.1 mph5.0 kmh 29.98 in1015.2 mb 0.00 in0.0 mm 0.00 in0.0 mm 0.00 in0.0 mm
10:15 PM 68.9°F20.5°C 66.2°F19.0°C 91% 1.6 mph WNW2.6 kmh WNW 3.8 mph6.1 kmh 29.99 in1015.6 mb 0.00 in0.0 mm 0.00 in0.0 mm 0.00 in0.0 mm
10:30 PM 69.4°F20.8°C 66.7°F19.3°C 91% 3.8 mph NW6.1 kmh NW 5.4 mph8.7 kmh 28.77 in974.3 mb 0.00 in0.0 mm 0.00 in0.0 mm 0.00 in0.0 mm
10:45 PM 67.8°F19.9°C 65.4°F18.6°C 92% 3.8 mph NW6.1 kmh NW 6.9 mph11.1 kmh 28.77 in974.3 mb 0.00 in0.0 mm 0.00 in0.0 mm 0.00 in0.0 mm
11:00 PM 66.6°F19.2°C 63.9°F17.7°C 91% 3.8 mph N6.1 kmh N 4.5 mph7.2 kmh 28.77 in974.3 mb 0.00 in0.0 mm 0.00 in0.0 mm 0.00 in0.0 mm
11:15 PM 68.9°F20.5°C 62.1°F16.7°C 79% 3.1 mph NNE5.0 kmh NNE 4.5 mph7.2 kmh 28.77 in974.3 mb 0.00 in0.0 mm 0.00 in0.0 mm 0.00 in0.0 mm
11:30 PM 69.1°F20.6°C 59.7°F15.4°C 72% 3.8 mph NNE6.1 kmh NNE 6.0 mph9.7 kmh 28.77 in974.3 mb 0.00 in0.0 mm 0.00 in0.0 mm 0.00 in0.0 mm
11:45 PM 69.3°F20.7°C 55.7°F13.2°C 62% 3.8 mph N6.1 kmh N 5.4 mph8.7 kmh 28.77 in974.3 mb 0.00 in0.0 mm 0.00 in0.0 mm 0.00 in0.0 mm